Time;durP1;ratioP1;P1;durP2;ratioP2;P2;SDS_P1;SDS_P2;PMS_P1;PMS_P2;Temp;Humidity;BMP_temperature;BMP_pressure;BME280_temperature;BME280_humidity;BME280_pressure;Samples;Min_cycle;Max_cycle;Signal;HPM_P1;HPM_P2
2021/09/05 00:00:56;;;;;;;37.72;18.67;;;12.60;99.90;;;;;;4978785;28;20439;-87
2021/09/05 00:03:22;;;;;;;40.28;18.58;;;12.60;99.90;;;;;;4977978;28;20081;-89
2021/09/05 00:05:48;;;;;;;38.40;18.55;;;12.60;99.90;;;;;;4979677;28;20041;-87
2021/09/05 00:08:14;;;;;;;38.97;18.90;;;12.60;99.90;;;;;;4973648;28;20459;-86
2021/09/05 00:10:40;;;;;;;41.47;20.17;;;12.60;99.90;;;;;;4958843;28;20037;-85
2021/09/05 00:13:06;;;;;;;32.80;18.90;;;12.60;99.90;;;;;;5004165;28;20042;-86
2021/09/05 00:15:32;;;;;;;39.97;19.42;;;12.60;99.90;;;;;;4975836;28;20044;-85
2021/09/05 00:17:57;;;;;;;38.20;19.63;;;12.60;99.90;;;;;;4975394;28;20124;-86
2021/09/05 00:20:23;;;;;;;40.42;19.70;;;12.50;99.90;;;;;;4987606;28;20041;-86
2021/09/05 00:22:49;;;;;;;39.72;20.17;;;12.50;99.90;;;;;;4973196;28;20100;-87
2021/09/05 00:25:15;;;;;;;42.80;19.80;;;12.50;99.90;;;;;;4989819;28;20077;-87
2021/09/05 00:27:41;;;;;;;37.60;19.52;;;12.50;99.90;;;;;;4973432;28;20497;-86
2021/09/05 00:30:08;;;;;;;45.00;20.92;;;12.50;99.90;;;;;;4988026;28;20098;-86
2021/09/05 00:32:33;;;;;;;43.10;20.95;;;12.50;99.90;;;;;;5018647;28;20489;-87
2021/09/05 00:34:59;;;;;;;41.55;20.95;;;12.50;99.90;;;;;;4990721;28;20041;-86
2021/09/05 00:37:25;;;;;;;41.90;21.65;;;12.50;99.90;;;;;;4993141;28;20523;-87
2021/09/05 00:39:50;;;;;;;43.33;20.25;;;12.50;99.90;;;;;;4973138;28;20130;-86
2021/09/05 00:42:24;;;;;;;48.03;21.83;;;12.50;99.90;;;;;;4987505;28;20312;-86
2021/09/05 00:44:53;;;;;;;39.90;20.38;;;12.40;99.90;;;;;;4998888;28;20069;-87
2021/09/05 00:47:20;;;;;;;44.45;20.92;;;12.40;99.90;;;;;;4988441;28;20304;-87
2021/09/05 00:49:46;;;;;;;45.13;21.95;;;12.40;99.90;;;;;;5004517;28;20096;-86
2021/09/05 00:52:13;;;;;;;43.28;22.02;;;12.40;99.90;;;;;;4996363;28;20041;-87
2021/09/05 00:54:43;;;;;;;48.67;21.67;;;12.40;99.90;;;;;;4988639;28;20049;-86
2021/09/05 00:57:17;;;;;;;47.47;23.55;;;12.40;99.90;;;;;;4975381;28;20120;-86
2021/09/05 00:59:45;;;;;;;50.15;21.95;;;12.40;99.90;;;;;;4977960;28;20046;-86
2021/09/05 01:02:11;;;;;;;46.38;21.52;;;12.40;99.90;;;;;;4987859;28;20038;-87
2021/09/05 01:04:37;;;;;;;50.55;22.58;;;12.40;99.90;;;;;;4983527;28;20046;-87
2021/09/05 01:07:03;;;;;;;52.17;22.98;;;12.40;99.90;;;;;;4968509;28;20045;-87
2021/09/05 01:09:30;;;;;;;45.05;21.60;;;12.40;99.90;;;;;;4990926;28;20052;-86
2021/09/05 01:11:58;;;;;;;40.28;21.30;;;12.40;99.90;;;;;;4972049;28;20058;-87
2021/09/05 01:14:25;;;;;;;46.83;23.35;;;12.40;99.90;;;;;;4981279;28;20508;-85
2021/09/05 01:16:51;;;;;;;42.40;22.42;;;12.30;99.90;;;;;;4973063;28;20490;-86
2021/09/05 01:19:20;;;;;;;45.47;22.80;;;12.30;99.90;;;;;;4975021;28;20120;-86
2021/09/05 01:21:47;;;;;;;47.40;23.08;;;12.30;99.90;;;;;;5008871;28;20049;-86
2021/09/05 01:24:14;;;;;;;48.47;21.13;;;12.30;99.90;;;;;;4985535;28;20184;-86
2021/09/05 01:26:43;;;;;;;47.33;22.45;;;12.30;99.90;;;;;;4967868;28;20576;-86
2021/09/05 01:29:10;;;;;;;51.00;23.13;;;12.20;99.90;;;;;;5015404;28;20650;-86
2021/09/05 01:31:44;;;;;;;49.50;22.25;;;12.20;99.90;;;;;;4991411;28;20042;-86
2021/09/05 01:34:12;;;;;;;43.28;22.35;;;12.20;99.90;;;;;;4983537;28;20132;-86
2021/09/05 01:36:38;;;;;;;51.47;22.38;;;12.10;99.90;;;;;;4993729;28;20073;-85
2021/09/05 01:39:06;;;;;;;51.30;23.40;;;12.10;99.90;;;;;;4998040;28;20120;-86
2021/09/05 01:41:32;;;;;;;45.03;22.70;;;12.10;99.90;;;;;;4994133;28;20103;-86
2021/09/05 01:44:06;;;;;;;47.50;21.20;;;12.10;99.90;;;;;;4971320;28;20501;-86
2021/09/05 01:46:32;;;;;;;48.30;22.88;;;12.10;99.90;;;;;;4986546;28;20373;-86
2021/09/05 01:48:58;;;;;;;47.85;22.45;;;12.10;99.90;;;;;;4979152;28;20044;-87
2021/09/05 01:51:24;;;;;;;45.17;22.25;;;12.00;99.90;;;;;;4995393;28;20612;-86
2021/09/05 01:53:50;;;;;;;45.40;21.42;;;12.00;99.90;;;;;;4988096;28;20053;-87
2021/09/05 01:56:16;;;;;;;44.08;21.02;;;11.90;99.90;;;;;;4987743;28;20034;-85
2021/09/05 01:58:42;;;;;;;41.80;19.65;;;11.90;99.90;;;;;;4973994;28;20038;-88
2021/09/05 02:01:08;;;;;;;43.08;21.08;;;11.90;99.90;;;;;;4980668;28;20049;-86
2021/09/05 02:03:34;;;;;;;41.97;20.77;;;11.80;99.90;;;;;;4985924;28;20050;-87
2021/09/05 02:06:00;;;;;;;48.47;20.55;;;11.80;99.90;;;;;;4994080;28;20388;-86
2021/09/05 02:08:25;;;;;;;50.80;21.80;;;11.80;99.90;;;;;;4992095;28;20038;-85
2021/09/05 02:10:51;;;;;;;59.10;20.25;;;11.70;99.90;;;;;;4990808;28;20042;-86
2021/09/05 02:13:17;;;;;;;48.72;20.38;;;11.60;99.90;;;;;;4988293;28;20041;-87
2021/09/05 02:15:42;;;;;;;47.05;19.95;;;11.60;99.90;;;;;;4970161;28;20046;-86
2021/09/05 02:18:08;;;;;;;49.58;20.42;;;11.60;99.90;;;;;;4993307;28;20449;-86
2021/09/05 02:20:34;;;;;;;46.72;19.52;;;11.60;99.90;;;;;;4962687;28;20037;-86
2021/09/05 02:22:59;;;;;;;46.72;19.70;;;11.50;99.90;;;;;;4976056;28;20129;-86
2021/09/05 02:25:25;;;;;;;96.55;19.60;;;11.50;99.90;;;;;;4984810;28;20449;-86
2021/09/05 02:27:51;;;;;;;35.50;18.15;;;11.50;99.90;;;;;;4980978;28;20031;-86
2021/09/05 02:30:17;;;;;;;99.70;18.75;;;11.50;99.90;;;;;;5000688;28;20061;-88
2021/09/05 02:32:43;;;;;;;205.63;20.92;;;11.40;99.90;;;;;;4973920;28;20034;-86
2021/09/05 02:35:10;;;;;;;429.75;25.73;;;11.40;99.90;;;;;;4990287;28;20305;-85
2021/09/05 02:37:37;;;;;;;328.20;21.98;;;11.30;99.90;;;;;;4981215;28;20041;-87
2021/09/05 02:40:05;;;;;;;197.50;21.30;;;11.30;99.90;;;;;;4996279;28;20048;-86
2021/09/05 02:42:33;;;;;;;165.95;20.83;;;11.30;99.90;;;;;;4984336;28;20095;-86
2021/09/05 02:45:01;;;;;;;87.93;18.50;;;11.20;99.90;;;;;;4978969;28;20328;-86
2021/09/05 02:47:27;;;;;;;130.50;18.00;;;11.20;99.90;;;;;;4990188;28;20048;-85
2021/09/05 02:49:53;;;;;;;162.43;17.88;;;11.20;99.90;;;;;;4976066;28;20045;-87
2021/09/05 02:52:19;;;;;;;122.70;16.48;;;11.20;99.90;;;;;;4991732;28;20041;-86
2021/09/05 02:54:44;;;;;;;70.65;15.63;;;11.20;99.90;;;;;;5012438;28;20050;-86
2021/09/05 02:57:10;;;;;;;93.10;16.05;;;11.10;99.90;;;;;;4987328;28;20040;-86
2021/09/05 02:59:36;;;;;;;81.65;15.48;;;11.10;99.90;;;;;;4980365;28;20037;-86
2021/09/05 03:02:02;;;;;;;77.40;16.58;;;11.10;99.90;;;;;;4978375;28;20041;-87
2021/09/05 03:04:28;;;;;;;84.43;16.15;;;11.10;99.90;;;;;;4989755;28;20072;-87
2021/09/05 03:06:55;;;;;;;88.97;15.23;;;11.00;99.90;;;;;;4993634;28;20079;-86
2021/09/05 03:09:21;;;;;;;76.95;15.77;;;11.00;99.90;;;;;;4978190;28;20096;-85
2021/09/05 03:11:47;;;;;;;105.53;16.02;;;11.00;99.90;;;;;;4968125;28;20044;-86
2021/09/05 03:14:13;;;;;;;49.25;14.65;;;11.00;99.90;;;;;;4974537;28;20053;-87
2021/09/05 03:16:39;;;;;;;28.88;14.75;;;10.90;99.90;;;;;;4993221;28;20079;-86
2021/09/05 03:19:05;;;;;;;30.02;16.02;;;10.90;99.90;;;;;;4973095;28;20103;-87
2021/09/05 03:21:30;;;;;;;40.90;16.25;;;10.90;99.90;;;;;;4985769;28;20099;-86
2021/09/05 03:23:56;;;;;;;28.85;16.20;;;10.80;99.90;;;;;;4983632;28;20044;-86
2021/09/05 03:26:22;;;;;;;26.40;16.48;;;10.80;99.90;;;;;;4976892;28;20038;-86
2021/09/05 03:28:48;;;;;;;28.95;17.38;;;10.80;99.90;;;;;;4974359;28;20640;-86
2021/09/05 03:31:13;;;;;;;31.48;18.30;;;10.80;99.90;;;;;;4983860;28;20382;-86
2021/09/05 03:33:39;;;;;;;33.85;18.38;;;10.80;99.90;;;;;;4971750;28;20665;-87
2021/09/05 03:36:05;;;;;;;30.55;16.75;;;10.80;99.90;;;;;;5007990;28;20049;-87
2021/09/05 03:38:32;;;;;;;25.80;16.98;;;10.70;99.90;;;;;;4974236;28;20665;-86
2021/09/05 03:40:58;;;;;;;34.03;20.13;;;10.80;99.90;;;;;;4988520;28;20405;-86
2021/09/05 03:43:24;;;;;;;31.55;18.25;;;10.70;99.90;;;;;;4976455;28;20045;-87
2021/09/05 03:45:49;;;;;;;33.15;18.67;;;10.70;99.90;;;;;;4993410;28;20041;-87
2021/09/05 03:48:15;;;;;;;28.58;18.23;;;10.70;99.90;;;;;;4976598;28;20034;-86
2021/09/05 03:50:41;;;;;;;32.40;18.75;;;10.70;99.90;;;;;;4993461;28;20041;-85
2021/09/05 03:53:07;;;;;;;36.97;19.88;;;10.70;99.90;;;;;;4988296;28;20045;-84
2021/09/05 03:55:32;;;;;;;35.58;20.42;;;10.60;99.90;;;;;;4981469;28;20072;-87
2021/09/05 03:57:58;;;;;;;43.10;23.08;;;10.60;99.90;;;;;;5007339;28;20041;-86
2021/09/05 04:00:24;;;;;;;37.28;21.08;;;10.60;99.90;;;;;;4991706;28;20991;-85
2021/09/05 04:02:50;;;;;;;34.50;20.58;;;10.60;99.90;;;;;;4990515;28;20041;-86
2021/09/05 04:05:16;;;;;;;36.92;21.40;;;10.60;99.90;;;;;;4991944;28;20046;-86
2021/09/05 04:07:50;;;;;;;40.13;22.55;;;10.60;99.90;;;;;;4992169;28;20057;-87
2021/09/05 04:10:16;;;;;;;41.80;22.48;;;10.50;99.90;;;;;;4979639;28;20511;-87
2021/09/05 04:12:43;;;;;;;46.35;24.00;;;10.60;99.90;;;;;;4975456;28;20030;-86
2021/09/05 04:15:10;;;;;;;43.83;23.00;;;10.60;99.90;;;;;;5006055;28;20044;-85
2021/09/05 04:17:37;;;;;;;41.97;22.73;;;10.60;99.90;;;;;;4993191;28;20046;-86
2021/09/05 04:20:04;;;;;;;40.13;22.92;;;10.60;99.90;;;;;;4989220;28;20103;-85
2021/09/05 04:22:30;;;;;;;39.80;22.23;;;10.60;99.90;;;;;;4970784;28;20081;-87
2021/09/05 04:24:56;;;;;;;42.75;23.35;;;10.60;99.90;;;;;;4991018;28;20519;-85
2021/09/05 04:27:21;;;;;;;43.20;24.02;;;10.50;99.90;;;;;;4987726;28;20592;-86
2021/09/05 04:29:47;;;;;;;43.50;23.60;;;10.60;99.90;;;;;;5000715;28;20108;-87
2021/09/05 04:32:13;;;;;;;41.67;22.73;;;10.50;99.90;;;;;;4992923;28;20168;-86
2021/09/05 04:34:39;;;;;;;40.05;23.15;;;10.50;99.90;;;;;;5004692;28;20071;-86
2021/09/05 04:37:04;;;;;;;43.75;24.42;;;10.50;99.90;;;;;;4977428;28;20041;-86
2021/09/05 04:39:30;;;;;;;44.10;23.60;;;10.60;99.90;;;;;;5003609;28;20037;-85
2021/09/05 04:41:56;;;;;;;45.03;24.17;;;10.60;99.90;;;;;;5012748;28;20041;-87
2021/09/05 04:44:22;;;;;;;40.22;25.23;;;10.60;99.90;;;;;;4957458;28;20058;-86
2021/09/05 04:46:47;;;;;;;44.42;25.02;;;10.50;99.90;;;;;;4987929;28;21606;-86
2021/09/05 04:49:14;;;;;;;44.47;24.45;;;10.60;99.90;;;;;;4972756;28;20105;-85
2021/09/05 04:51:40;;;;;;;43.60;25.05;;;10.50;99.90;;;;;;4979640;28;20516;-85
2021/09/05 04:54:05;;;;;;;49.40;26.00;;;10.60;99.90;;;;;;4990634;28;20045;-86
2021/09/05 04:56:31;;;;;;;42.00;25.30;;;10.60;99.90;;;;;;4990494;28;20044;-85
2021/09/05 04:58:57;;;;;;;51.22;26.08;;;10.50;99.90;;;;;;4983797;28;20046;-87
2021/09/05 05:01:23;;;;;;;50.65;27.73;;;10.60;99.90;;;;;;4972658;28;20125;-86
2021/09/05 05:03:48;;;;;;;51.95;25.80;;;10.60;99.90;;;;;;4991727;28;20377;-86
2021/09/05 05:06:14;;;;;;;49.08;25.90;;;10.60;99.90;;;;;;4995123;28;20044;-86
2021/09/05 05:08:40;;;;;;;51.97;26.60;;;10.60;99.90;;;;;;4961882;28;20042;-86
2021/09/05 05:11:05;;;;;;;55.75;25.95;;;10.60;99.90;;;;;;4982493;28;20112;-86
2021/09/05 05:13:31;;;;;;;45.72;25.88;;;10.60;99.90;;;;;;4983309;28;20034;-86
2021/09/05 05:15:57;;;;;;;47.75;27.13;;;10.60;99.90;;;;;;4982574;28;20419;-85
2021/09/05 05:18:23;;;;;;;51.63;27.92;;;10.60;99.90;;;;;;4977676;28;20038;-85
2021/09/05 05:20:49;;;;;;;52.53;27.58;;;10.60;99.90;;;;;;4977142;28;20037;-86
2021/09/05 05:23:16;;;;;;;60.63;28.30;;;10.60;99.90;;;;;;4987930;28;20042;-86
2021/09/05 05:25:42;;;;;;;52.70;28.08;;;10.60;99.90;;;;;;4990943;28;20125;-85
2021/09/05 05:28:08;;;;;;;50.67;27.38;;;10.60;99.90;;;;;;4988756;28;20113;-86
2021/09/05 05:30:34;;;;;;;48.88;27.95;;;10.60;99.90;;;;;;4977753;28;20042;-85
2021/09/05 05:32:59;;;;;;;54.03;26.98;;;10.70;99.90;;;;;;4989020;28;20030;-86
2021/09/05 05:35:26;;;;;;;60.35;29.27;;;10.70;99.90;;;;;;4968200;28;20049;-86
2021/09/05 05:37:51;;;;;;;52.80;27.95;;;10.70;99.90;;;;;;4988564;28;20116;-86
2021/09/05 05:40:22;;;;;;;61.30;29.58;;;10.70;99.90;;;;;;4989212;28;20101;-86
2021/09/05 05:42:49;;;;;;;54.97;28.55;;;10.70;99.90;;;;;;4987061;28;20042;-88
2021/09/05 05:45:18;;;;;;;54.28;29.77;;;10.70;99.90;;;;;;4983707;28;20065;-87
2021/09/05 05:47:44;;;;;;;59.95;28.10;;;10.70;99.90;;;;;;4986123;28;20045;-88
2021/09/05 05:50:10;;;;;;;54.95;28.48;;;10.70;99.90;;;;;;4998225;28;20033;-86
2021/09/05 05:52:36;;;;;;;51.05;28.38;;;10.70;99.90;;;;;;4983950;28;20053;-87
2021/09/05 05:55:02;;;;;;;54.08;27.70;;;10.70;99.90;;;;;;4996228;28;20042;-86
2021/09/05 05:57:28;;;;;;;56.53;27.38;;;10.80;99.90;;;;;;4991006;28;20044;-86
2021/09/05 05:59:54;;;;;;;106.18;29.05;;;10.80;99.90;;;;;;4986037;28;20033;-88
2021/09/05 06:02:20;;;;;;;103.00;29.63;;;10.80;99.90;;;;;;4997116;28;20049;-88
2021/09/05 06:04:46;;;;;;;118.35;27.88;;;10.80;99.90;;;;;;4998390;28;20059;-88
2021/09/05 06:07:12;;;;;;;169.57;31.67;;;10.80;99.90;;;;;;4984273;28;20043;-88
2021/09/05 06:09:39;;;;;;;184.25;28.20;;;10.70;99.90;;;;;;4979652;28;20034;-89
2021/09/05 06:12:06;;;;;;;141.75;31.52;;;10.80;99.90;;;;;;4992680;28;20033;-90
2021/09/05 06:14:32;;;;;;;119.82;32.97;;;10.70;99.90;;;;;;4978394;28;20102;-89
2021/09/05 06:16:58;;;;;;;132.23;33.15;;;10.70;99.90;;;;;;4975182;28;20424;-88
2021/09/05 06:19:23;;;;;;;137.50;33.83;;;10.80;99.90;;;;;;4975699;28;20104;-87
2021/09/05 06:21:49;;;;;;;89.93;33.00;;;10.80;99.90;;;;;;4975868;28;20046;-88
2021/09/05 06:24:15;;;;;;;238.00;34.22;;;10.80;99.90;;;;;;4974281;28;20104;-88
2021/09/05 06:26:41;;;;;;;371.95;40.35;;;10.90;99.90;;;;;;4961120;28;20049;-90
2021/09/05 06:29:06;;;;;;;246.05;39.03;;;10.90;99.90;;;;;;4977354;28;20132;-88
2021/09/05 06:31:32;;;;;;;200.88;39.53;;;10.90;99.90;;;;;;4961900;28;20485;-88
2021/09/05 06:33:58;;;;;;;402.38;44.75;;;11.00;99.90;;;;;;4982601;28;20125;-87
2021/09/05 06:36:24;;;;;;;405.10;44.55;;;11.00;99.90;;;;;;4976325;28;20038;-87
2021/09/05 06:38:49;;;;;;;433.52;46.92;;;11.10;99.90;;;;;;4976704;28;20049;-88
2021/09/05 06:41:15;;;;;;;401.98;45.10;;;11.10;99.90;;;;;;4965586;28;20038;-90
2021/09/05 06:43:41;;;;;;;306.85;43.60;;;11.10;99.90;;;;;;4996961;28;20136;-88
2021/09/05 06:46:07;;;;;;;349.55;41.28;;;11.10;99.90;;;;;;5004349;28;20045;-89
2021/09/05 06:48:34;;;;;;;329.98;45.35;;;11.20;99.90;;;;;;4996677;28;20041;-89
2021/09/05 06:50:59;;;;;;;392.30;44.65;;;11.30;99.90;;;;;;4989595;28;20117;-89
2021/09/05 06:53:25;;;;;;;267.20;44.10;;;11.30;99.90;;;;;;4994137;28;20121;-88
2021/09/05 06:55:51;;;;;;;334.20;44.97;;;11.40;99.90;;;;;;4978429;28;20128;-88
2021/09/05 06:58:17;;;;;;;292.83;44.47;;;11.40;99.90;;;;;;4978610;28;20038;-89
2021/09/05 07:00:43;;;;;;;300.17;45.92;;;11.40;99.90;;;;;;4979166;28;20073;-88
2021/09/05 07:03:08;;;;;;;195.27;41.90;;;11.50;99.90;;;;;;4976340;28;20065;-89
2021/09/05 07:05:34;;;;;;;277.65;44.42;;;11.50;99.90;;;;;;4979929;28;20184;-89
2021/09/05 07:08:00;;;;;;;274.85;43.83;;;11.50;99.90;;;;;;5001070;28;20041;-89
2021/09/05 07:10:26;;;;;;;281.63;43.50;;;11.50;99.90;;;;;;4977169;28;20034;-89
2021/09/05 07:12:52;;;;;;;341.52;44.92;;;11.60;99.90;;;;;;4987257;28;20040;-87
2021/09/05 07:15:18;;;;;;;181.95;43.25;;;11.60;99.90;;;;;;4980614;28;20100;-88
2021/09/05 07:17:44;;;;;;;254.13;47.45;;;11.70;99.90;;;;;;4999729;28;20727;-88
2021/09/05 07:20:10;;;;;;;207.43;43.58;;;11.80;99.90;;;;;;4981003;28;20077;-88
2021/09/05 07:22:36;;;;;;;162.30;44.67;;;11.80;99.90;;;;;;5005187;28;20042;-88
2021/09/05 07:25:03;;;;;;;128.50;40.83;;;11.90;99.90;;;;;;4981165;28;20042;-88
2021/09/05 07:27:30;;;;;;;124.22;40.63;;;12.00;99.90;;;;;;4994343;28;20113;-90
2021/09/05 07:29:56;;;;;;;206.85;41.47;;;12.00;99.90;;;;;;4984561;28;20037;-88
2021/09/05 07:32:22;;;;;;;131.65;39.17;;;12.10;99.90;;;;;;4986875;28;20033;-88
2021/09/05 07:34:48;;;;;;;156.20;36.65;;;12.20;99.90;;;;;;4971161;28;20069;-87
2021/09/05 07:37:14;;;;;;;68.85;33.72;;;12.20;99.90;;;;;;4976087;28;20091;-89
2021/09/05 07:39:41;;;;;;;62.63;30.85;;;12.30;99.90;;;;;;4979567;28;20531;-87
2021/09/05 07:42:06;;;;;;;101.18;32.88;;;12.30;99.90;;;;;;4981480;28;20132;-87
2021/09/05 07:44:32;;;;;;;96.55;34.83;;;12.40;99.90;;;;;;4980940;28;20128;-91
2021/09/05 07:46:59;;;;;;;87.85;35.38;;;12.40;99.90;;;;;;4975226;28;20030;-88
2021/09/05 07:49:26;;;;;;;83.57;35.17;;;12.40;99.90;;;;;;4992871;28;20118;-88
2021/09/05 07:51:52;;;;;;;83.18;33.05;;;12.50;99.90;;;;;;4984518;28;20033;-89
2021/09/05 07:54:17;;;;;;;78.80;34.30;;;12.50;99.90;;;;;;4977935;28;20511;-89
2021/09/05 07:56:43;;;;;;;68.35;36.05;;;12.60;99.90;;;;;;4980198;28;20048;-90
2021/09/05 07:59:09;;;;;;;62.13;33.00;;;12.60;99.90;;;;;;4991294;28;20029;-88
2021/09/05 08:01:36;;;;;;;63.63;31.98;;;12.70;99.90;;;;;;4975792;28;20041;-87
2021/09/05 08:04:01;;;;;;;66.07;32.22;;;12.90;99.90;;;;;;4967107;28;20105;-88
2021/09/05 08:06:27;;;;;;;60.45;31.88;;;12.90;99.90;;;;;;4983786;28;20042;-88
2021/09/05 08:08:56;;;;;;;67.97;30.58;;;13.00;99.90;;;;;;4975796;28;20041;-88
2021/09/05 08:11:21;;;;;;;78.00;31.60;;;13.00;99.90;;;;;;4977812;28;20049;-89
2021/09/05 08:13:47;;;;;;;70.07;30.35;;;13.00;99.90;;;;;;4976053;28;20030;-89
2021/09/05 08:16:13;;;;;;;59.63;31.00;;;13.00;99.90;;;;;;4957725;28;20649;-88
2021/09/05 08:18:39;;;;;;;50.15;27.65;;;13.00;99.90;;;;;;4976634;28;20065;-92
2021/09/05 08:21:07;;;;;;;50.65;28.55;;;13.10;99.90;;;;;;4982252;28;20064;-87
2021/09/05 08:23:34;;;;;;;50.30;28.55;;;13.20;99.90;;;;;;4993772;28;20515;-90
2021/09/05 08:26:00;;;;;;;51.65;29.42;;;13.30;99.90;;;;;;4977861;28;20482;-90
2021/09/05 08:28:26;;;;;;;50.38;28.50;;;13.50;99.90;;;;;;4990531;28;20049;-90
2021/09/05 08:30:51;;;;;;;43.35;26.13;;;13.60;99.90;;;;;;4976519;28;20413;-90
2021/09/05 08:33:18;;;;;;;38.45;25.55;;;13.70;99.90;;;;;;4989597;28;20027;-90
2021/09/05 08:35:46;;;;;;;48.13;26.02;;;13.80;99.90;;;;;;4977163;28;20038;-90
2021/09/05 08:38:13;;;;;;;40.45;25.02;;;13.90;99.90;;;;;;4975832;28;20507;-89
2021/09/05 08:40:45;;;;;;;40.35;24.33;;;14.00;99.90;;;;;;4991176;28;20038;-92
2021/09/05 08:43:12;;;;;;;37.67;23.63;;;14.00;99.90;;;;;;4990179;28;20049;-89
2021/09/05 08:45:39;;;;;;;37.20;24.10;;;14.10;99.90;;;;;;5002392;28;20049;-88
2021/09/05 08:48:06;;;;;;;38.30;24.02;;;14.10;99.90;;;;;;4992921;28;20502;-90
2021/09/05 08:50:33;;;;;;;40.97;26.13;;;14.10;99.90;;;;;;4975586;28;20440;-89
2021/09/05 08:52:59;;;;;;;38.05;24.42;;;14.00;99.90;;;;;;4972175;28;20057;-86
2021/09/05 08:55:25;;;;;;;43.70;25.08;;;14.00;99.90;;;;;;4987257;28;20484;-87
2021/09/05 08:57:52;;;;;;;38.92;25.50;;;14.00;99.90;;;;;;4991499;28;20065;-87
2021/09/05 09:00:18;;;;;;;41.13;24.05;;;14.00;99.90;;;;;;4989783;28;20103;-86
2021/09/05 09:02:44;;;;;;;37.25;24.20;;;14.10;99.90;;;;;;4984562;28;20111;-85
2021/09/05 09:05:11;;;;;;;36.22;24.05;;;14.20;99.90;;;;;;4984795;28;20034;-87
2021/09/05 09:07:47;;;;;;;39.70;24.55;;;14.30;99.90;;;;;;4989278;28;20184;-85
2021/09/05 09:10:14;;;;;;;35.20;23.38;;;14.40;99.90;;;;;;4988244;28;20045;-88
2021/09/05 09:12:49;;;;;;;38.55;24.15;;;14.50;99.90;;;;;;4963764;28;20497;-88
2021/09/05 09:15:20;;;;;;;38.30;22.33;;;14.70;99.90;;;;;;4988619;28;20034;-86
2021/09/05 09:17:50;;;;;;;31.93;22.30;;;14.90;99.90;;;;;;4991195;28;20041;-87
2021/09/05 09:20:31;;;;;;;34.95;22.65;;;14.90;99.90;;;;;;4990049;28;20183;-87
2021/09/05 09:23:25;;;;;;;28.80;19.52;;;14.90;99.90;;;;;;5006682;28;20389;-87
2021/09/05 09:25:56;;;;;;;31.92;21.55;;;15.00;99.90;;;;;;4981775;28;20564;-84
2021/09/05 09:28:27;;;;;;;35.67;20.98;;;15.10;99.90;;;;;;5001200;28;20037;-87
2021/09/05 09:30:56;;;;;;;33.20;21.95;;;15.10;99.90;;;;;;5005125;28;20034;-87
2021/09/05 09:33:24;;;;;;;34.33;22.10;;;15.20;99.90;;;;;;4989697;28;20339;-86
2021/09/05 09:35:52;;;;;;;31.83;20.45;;;15.20;99.90;;;;;;4975366;28;20132;-86
2021/09/05 09:38:18;;;;;;;36.05;21.85;;;15.20;99.90;;;;;;4990166;28;20041;-87
2021/09/05 09:40:47;;;;;;;33.20;21.65;;;15.20;99.90;;;;;;4985949;28;20088;-86
2021/09/05 09:43:21;;;;;;;34.85;22.83;;;15.20;99.90;;;;;;4973320;28;20216;-85
2021/09/05 09:45:48;;;;;;;33.55;21.27;;;15.30;99.90;;;;;;5000829;28;20042;-86
2021/09/05 09:48:25;;;;;;;30.33;20.25;;;15.40;99.90;;;;;;4992010;28;20115;-86
2021/09/05 09:50:59;;;;;;;31.80;21.00;;;15.50;99.90;;;;;;4991477;28;20042;-86
2021/09/05 09:53:25;;;;;;;32.95;21.42;;;15.60;99.90;;;;;;5006652;28;20048;-86
2021/09/05 09:55:52;;;;;;;36.90;21.60;;;15.70;99.90;;;;;;4968623;28;20041;-85
2021/09/05 09:58:18;;;;;;;35.15;20.10;;;15.80;99.90;;;;;;4984152;28;20217;-86
2021/09/05 10:00:44;;;;;;;31.98;19.17;;;15.90;99.90;;;;;;4970532;28;20046;-86
2021/09/05 10:03:11;;;;;;;33.33;20.88;;;15.90;99.90;;;;;;5003721;28;20058;-86
2021/09/05 10:05:39;;;;;;;32.80;21.77;;;16.00;99.90;;;;;;4988000;28;20038;-85
2021/09/05 10:08:06;;;;;;;32.63;21.25;;;16.00;99.90;;;;;;4995755;28;20489;-83
2021/09/05 10:10:33;;;;;;;29.80;19.40;;;15.90;99.90;;;;;;4971821;28;20030;-84
2021/09/05 10:13:00;;;;;;;31.70;21.02;;;15.90;99.90;;;;;;4967645;28;20030;-84
2021/09/05 10:15:26;;;;;;;37.22;20.85;;;15.90;99.90;;;;;;4976063;28;20393;-84
2021/09/05 10:17:52;;;;;;;36.53;22.25;;;15.90;99.90;;;;;;4976928;28;20045;-86
2021/09/05 10:20:18;;;;;;;35.33;23.40;;;16.00;99.90;;;;;;4975027;28;20046;-83
2021/09/05 10:22:44;;;;;;;33.88;22.70;;;16.10;99.90;;;;;;4978849;28;20100;-84
2021/09/05 10:25:11;;;;;;;36.40;23.80;;;16.20;99.90;;;;;;4981680;28;21214;-84
2021/09/05 10:27:39;;;;;;;40.20;24.00;;;16.20;99.90;;;;;;4979890;28;20181;-85
2021/09/05 10:30:07;;;;;;;34.13;22.88;;;16.30;99.90;;;;;;5003597;28;20080;-84
2021/09/05 10:32:52;;;;;;;36.28;23.25;;;16.30;99.90;;;;;;4998787;28;20037;-86
2021/09/05 10:35:26;;;;;;;38.10;22.83;;;16.30;99.90;;;;;;5017790;28;20053;-84
2021/09/05 10:38:11;;;;;;;40.30;24.38;;;16.40;99.90;;;;;;4989365;28;20069;-84
2021/09/05 10:40:49;;;;;;;37.35;23.08;;;16.40;99.90;;;;;;5004433;28;20921;-83
2021/09/05 10:43:16;;;;;;;39.95;22.75;;;16.50;99.90;;;;;;4993486;28;20042;-84
2021/09/05 10:45:45;;;;;;;35.88;22.80;;;16.50;99.90;;;;;;4995845;28;20648;-86
2021/09/05 10:48:37;;;;;;;36.78;22.70;;;16.50;99.90;;;;;;4996054;28;20042;-85
2021/09/05 10:51:07;;;;;;;33.63;21.50;;;16.60;99.90;;;;;;5023304;28;20041;-85
2021/09/05 10:53:49;;;;;;;36.25;23.25;;;16.70;99.90;;;;;;4987626;28;20049;-86
2021/09/05 10:56:17;;;;;;;41.42;22.67;;;16.80;99.90;;;;;;4993858;28;20045;-88
2021/09/05 10:58:53;;;;;;;38.25;23.17;;;16.90;99.90;;;;;;4993090;28;20753;-86
2021/09/05 11:01:19;;;;;;;34.70;22.02;;;17.00;99.90;;;;;;5012652;28;20117;-84
2021/09/05 11:04:10;;;;;;;32.85;21.23;;;17.00;99.90;;;;;;4996012;28;20124;-85
2021/09/05 11:06:40;;;;;;;31.25;19.55;;;17.10;99.90;;;;;;5004441;28;20049;-86
2021/09/05 11:12:07;;;;;;;38.08;24.40;;;17.20;99.90;;;;;;5023097;28;20054;-85
2021/09/05 11:14:36;;;;;;;42.30;24.88;;;17.30;99.90;;;;;;5007961;28;20048;-85
2021/09/05 11:17:08;;;;;;;36.08;23.08;;;17.30;99.90;;;;;;5004077;28;20038;-84
2021/09/05 11:20:02;;;;;;;36.38;23.02;;;17.30;99.90;;;;;;5018574;28;20390;-86
2021/09/05 11:22:28;;;;;;;32.97;21.20;;;17.30;99.90;;;;;;4984807;28;20038;-85
2021/09/05 11:25:17;;;;;;;32.30;20.05;;;17.40;99.90;;;;;;4979486;28;20040;-84
2021/09/05 11:28:03;;;;;;;31.42;19.45;;;17.50;99.90;;;;;;4988423;28;20622;-87
2021/09/05 11:30:33;;;;;;;28.85;19.38;;;17.50;99.90;;;;;;5003968;28;20151;-85
2021/09/05 11:33:05;;;;;;;29.70;20.02;;;17.60;99.90;;;;;;5002053;28;20397;-86
2021/09/05 11:35:42;;;;;;;30.80;19.77;;;17.60;99.90;;;;;;4999093;28;20052;-86
2021/09/05 11:38:09;;;;;;;33.35;20.23;;;17.60;99.80;;;;;;4989644;28;20073;-87
2021/09/05 11:40:45;;;;;;;33.78;20.17;;;17.60;99.90;;;;;;4984569;28;20151;-85
2021/09/05 11:43:11;;;;;;;29.15;19.05;;;17.70;99.90;;;;;;4982891;28;20120;-84
2021/09/05 11:45:41;;;;;;;30.77;19.17;;;17.70;99.90;;;;;;4986052;28;20469;-85
2021/09/05 11:48:10;;;;;;;29.27;19.17;;;17.70;99.90;;;;;;4983249;28;20976;-82
2021/09/05 11:50:37;;;;;;;27.98;18.77;;;17.80;99.80;;;;;;4967947;28;20101;-86
2021/09/05 11:53:04;;;;;;;25.80;17.17;;;17.80;99.60;;;;;;5002225;28;20508;-85
2021/09/05 11:55:30;;;;;;;62.20;55.70;;;17.90;99.50;;;;;;5005275;28;20049;-85
2021/09/05 11:58:01;;;;;;;28.63;19.52;;;17.90;99.20;;;;;;4987756;28;20042;-86
2021/09/05 12:00:31;;;;;;;30.20;21.27;;;18.00;99.00;;;;;;4985642;28;20037;-85
2021/09/05 12:04:04;;;;;;;25.15;16.98;;;18.10;98.90;;;;;;4997214;28;20415;-88
2021/09/05 12:06:42;;;;;;;25.17;17.30;;;18.20;98.90;;;;;;5000880;28;20107;-87
2021/09/05 12:09:08;;;;;;;26.90;17.23;;;18.30;98.60;;;;;;5004081;28;20285;-86
2021/09/05 12:12:03;;;;;;;27.67;16.40;;;18.40;98.20;;;;;;4960264;28;20460;-85
2021/09/05 12:14:35;;;;;;;27.20;15.75;;;18.40;97.40;;;;;;5003167;28;20044;-85
2021/09/05 12:17:21;;;;;;;25.63;15.97;;;18.40;97.20;;;;;;5010084;28;20062;-85
2021/09/05 12:19:57;;;;;;;28.63;16.77;;;18.50;97.60;;;;;;5000501;28;20392;-86
2021/09/05 12:22:39;;;;;;;21.85;15.00;;;18.50;97.60;;;;;;4966842;28;20042;-87
2021/09/05 12:25:12;;;;;;;21.98;14.35;;;18.60;97.20;;;;;;4985773;28;20038;-87
2021/09/05 12:27:38;;;;;;;22.48;13.07;;;18.60;97.00;;;;;;5001547;28;20046;-85
2021/09/05 12:30:31;;;;;;;24.80;15.45;;;18.70;96.60;;;;;;4985704;28;20038;-86
2021/09/05 12:33:03;;;;;;;20.55;13.90;;;18.70;96.10;;;;;;5008008;28;20049;-86